sensor_id;sensor_type;location;lat;lon;timestamp;temperature;humidity
22645;DHT22;11489;50.834;6.752;2023-08-07T00:00:27;13.20;95.20
22645;DHT22;11489;50.834;6.752;2023-08-07T00:02:53;13.20;95.20
22645;DHT22;11489;50.834;6.752;2023-08-07T00:05:18;13.20;95.20
22645;DHT22;11489;50.834;6.752;2023-08-07T00:07:44;13.20;95.20
22645;DHT22;11489;50.834;6.752;2023-08-07T00:10:10;13.20;95.20
22645;DHT22;11489;50.834;6.752;2023-08-07T00:12:36;13.20;95.10
22645;DHT22;11489;50.834;6.752;2023-08-07T00:15:02;13.20;95.10
22645;DHT22;11489;50.834;6.752;2023-08-07T00:17:28;13.20;95.10
22645;DHT22;11489;50.834;6.752;2023-08-07T00:19:54;13.20;95.10
22645;DHT22;11489;50.834;6.752;2023-08-07T00:22:20;13.20;95.10
22645;DHT22;11489;50.834;6.752;2023-08-07T00:24:46;13.20;95.10
22645;DHT22;11489;50.834;6.752;2023-08-07T00:27:11;13.20;95.10
22645;DHT22;11489;50.834;6.752;2023-08-07T00:29:38;13.20;95.10
22645;DHT22;11489;50.834;6.752;2023-08-07T00:32:04;13.20;95.10
22645;DHT22;11489;50.834;6.752;2023-08-07T00:34:30;13.20;95.10
22645;DHT22;11489;50.834;6.752;2023-08-07T00:36:56;13.20;95.00
22645;DHT22;11489;50.834;6.752;2023-08-07T00:39:22;13.20;95.00
22645;DHT22;11489;50.834;6.752;2023-08-07T00:41:48;13.20;95.00
22645;DHT22;11489;50.834;6.752;2023-08-07T00:44:13;13.20;95.00
22645;DHT22;11489;50.834;6.752;2023-08-07T00:46:39;13.20;94.90
22645;DHT22;11489;50.834;6.752;2023-08-07T00:49:06;13.20;94.90
22645;DHT22;11489;50.834;6.752;2023-08-07T00:51:33;13.20;94.90
22645;DHT22;11489;50.834;6.752;2023-08-07T00:53:59;13.20;94.90
22645;DHT22;11489;50.834;6.752;2023-08-07T00:56:26;13.20;94.80
22645;DHT22;11489;50.834;6.752;2023-08-07T00:58:53;13.20;94.90
22645;DHT22;11489;50.834;6.752;2023-08-07T01:01:19;13.20;95.00
22645;DHT22;11489;50.834;6.752;2023-08-07T01:03:44;13.20;94.80
22645;DHT22;11489;50.834;6.752;2023-08-07T01:06:10;13.20;94.90
22645;DHT22;11489;50.834;6.752;2023-08-07T01:08:36;13.20;94.90
22645;DHT22;11489;50.834;6.752;2023-08-07T01:16:52;13.20;94.70
22645;DHT22;11489;50.834;6.752;2023-08-07T01:19:27;13.20;94.50
22645;DHT22;11489;50.834;6.752;2023-08-07T01:22:14;13.20;94.80
22645;DHT22;11489;50.834;6.752;2023-08-07T01:24:45;13.20;94.50
22645;DHT22;11489;50.834;6.752;2023-08-07T01:29:50;13.20;95.00
22645;DHT22;11489;50.834;6.752;2023-08-07T01:32:22;13.20;95.00
22645;DHT22;11489;50.834;6.752;2023-08-07T01:34:50;13.20;95.00
22645;DHT22;11489;50.834;6.752;2023-08-07T01:37:17;13.20;95.10
22645;DHT22;11489;50.834;6.752;2023-08-07T01:39:44;13.20;95.10
22645;DHT22;11489;50.834;6.752;2023-08-07T01:42:11;13.20;95.10
22645;DHT22;11489;50.834;6.752;2023-08-07T01:44:37;13.20;95.20
22645;DHT22;11489;50.834;6.752;2023-08-07T01:47:03;13.20;95.20
22645;DHT22;11489;50.834;6.752;2023-08-07T01:49:29;13.20;95.20
22645;DHT22;11489;50.834;6.752;2023-08-07T01:51:55;13.20;95.20
22645;DHT22;11489;50.834;6.752;2023-08-07T01:54:20;13.20;95.20
22645;DHT22;11489;50.834;6.752;2023-08-07T01:56:46;13.30;95.20
22645;DHT22;11489;50.834;6.752;2023-08-07T01:59:12;13.20;95.20
22645;DHT22;11489;50.834;6.752;2023-08-07T02:01:37;13.20;95.20
22645;DHT22;11489;50.834;6.752;2023-08-07T02:04:03;13.30;95.20
22645;DHT22;11489;50.834;6.752;2023-08-07T02:06:28;13.30;95.30
22645;DHT22;11489;50.834;6.752;2023-08-07T02:08:54;13.30;95.20
22645;DHT22;11489;50.834;6.752;2023-08-07T02:11:20;13.30;95.20
22645;DHT22;11489;50.834;6.752;2023-08-07T02:13:45;13.30;95.10
22645;DHT22;11489;50.834;6.752;2023-08-07T02:16:11;13.30;95.00
22645;DHT22;11489;50.834;6.752;2023-08-07T02:18:37;13.30;95.00
22645;DHT22;11489;50.834;6.752;2023-08-07T02:21:02;13.30;95.10
22645;DHT22;11489;50.834;6.752;2023-08-07T02:23:28;13.20;95.10
22645;DHT22;11489;50.834;6.752;2023-08-07T02:25:54;13.30;95.10
22645;DHT22;11489;50.834;6.752;2023-08-07T02:28:20;13.20;95.10
22645;DHT22;11489;50.834;6.752;2023-08-07T02:30:46;13.20;95.10
22645;DHT22;11489;50.834;6.752;2023-08-07T02:33:16;13.20;95.10
22645;DHT22;11489;50.834;6.752;2023-08-07T02:35:42;13.30;95.10
22645;DHT22;11489;50.834;6.752;2023-08-07T02:38:08;13.30;95.20
22645;DHT22;11489;50.834;6.752;2023-08-07T02:40:33;13.30;95.00
22645;DHT22;11489;50.834;6.752;2023-08-07T02:42:59;13.30;95.10
22645;DHT22;11489;50.834;6.752;2023-08-07T02:45:25;13.30;95.10
22645;DHT22;11489;50.834;6.752;2023-08-07T02:47:51;13.30;95.10
22645;DHT22;11489;50.834;6.752;2023-08-07T02:50:16;13.30;95.10
22645;DHT22;11489;50.834;6.752;2023-08-07T02:52:42;13.30;95.00
22645;DHT22;11489;50.834;6.752;2023-08-07T02:55:08;13.30;95.00
22645;DHT22;11489;50.834;6.752;2023-08-07T02:57:34;13.30;95.10
22645;DHT22;11489;50.834;6.752;2023-08-07T03:00:00;13.30;95.00
22645;DHT22;11489;50.834;6.752;2023-08-07T03:02:25;13.30;95.10
22645;DHT22;11489;50.834;6.752;2023-08-07T03:04:51;13.30;94.90
22645;DHT22;11489;50.834;6.752;2023-08-07T03:07:16;13.30;95.00
22645;DHT22;11489;50.834;6.752;2023-08-07T03:09:45;13.30;95.00
22645;DHT22;11489;50.834;6.752;2023-08-07T03:12:12;13.30;95.00
22645;DHT22;11489;50.834;6.752;2023-08-07T03:14:38;13.30;95.00
22645;DHT22;11489;50.834;6.752;2023-08-07T03:17:04;13.30;95.00
22645;DHT22;11489;50.834;6.752;2023-08-07T03:19:30;13.30;95.00
22645;DHT22;11489;50.834;6.752;2023-08-07T03:21:55;13.30;94.90
22645;DHT22;11489;50.834;6.752;2023-08-07T03:24:21;13.30;94.80
22645;DHT22;11489;50.834;6.752;2023-08-07T03:26:46;13.30;94.70
22645;DHT22;11489;50.834;6.752;2023-08-07T03:29:14;13.20;94.70
22645;DHT22;11489;50.834;6.752;2023-08-07T03:31:40;13.20;94.70
22645;DHT22;11489;50.834;6.752;2023-08-07T03:34:05;13.20;94.70
22645;DHT22;11489;50.834;6.752;2023-08-07T03:36:31;13.10;94.70
22645;DHT22;11489;50.834;6.752;2023-08-07T03:38:57;13.00;94.60
22645;DHT22;11489;50.834;6.752;2023-08-07T03:41:22;13.00;94.70
22645;DHT22;11489;50.834;6.752;2023-08-07T03:43:48;12.90;94.70
22645;DHT22;11489;50.834;6.752;2023-08-07T03:46:13;12.90;94.70
22645;DHT22;11489;50.834;6.752;2023-08-07T03:48:39;12.90;94.80
22645;DHT22;11489;50.834;6.752;2023-08-07T03:51:06;12.80;94.90
22645;DHT22;11489;50.834;6.752;2023-08-07T03:53:34;12.80;94.90
22645;DHT22;11489;50.834;6.752;2023-08-07T03:55:59;12.70;94.90
22645;DHT22;11489;50.834;6.752;2023-08-07T03:58:25;12.70;95.00
22645;DHT22;11489;50.834;6.752;2023-08-07T04:00:51;12.70;95.00
22645;DHT22;11489;50.834;6.752;2023-08-07T04:03:19;12.60;95.00
22645;DHT22;11489;50.834;6.752;2023-08-07T04:05:45;12.60;95.00
22645;DHT22;11489;50.834;6.752;2023-08-07T04:08:10;12.60;95.10
22645;DHT22;11489;50.834;6.752;2023-08-07T04:10:36;12.60;95.10
22645;DHT22;11489;50.834;6.752;2023-08-07T04:13:02;12.60;95.10
22645;DHT22;11489;50.834;6.752;2023-08-07T04:15:27;12.50;95.20
22645;DHT22;11489;50.834;6.752;2023-08-07T04:17:53;12.50;95.20
22645;DHT22;11489;50.834;6.752;2023-08-07T04:20:19;12.40;95.30
22645;DHT22;11489;50.834;6.752;2023-08-07T04:22:45;12.40;95.30
22645;DHT22;11489;50.834;6.752;2023-08-07T04:25:12;12.40;95.40
22645;DHT22;11489;50.834;6.752;2023-08-07T04:27:37;12.40;95.40
22645;DHT22;11489;50.834;6.752;2023-08-07T04:30:05;12.40;95.50
22645;DHT22;11489;50.834;6.752;2023-08-07T04:32:31;12.40;95.60
22645;DHT22;11489;50.834;6.752;2023-08-07T04:34:58;12.40;95.60
22645;DHT22;11489;50.834;6.752;2023-08-07T04:37:24;12.50;95.70
22645;DHT22;11489;50.834;6.752;2023-08-07T04:39:50;12.40;95.60
22645;DHT22;11489;50.834;6.752;2023-08-07T04:42:15;12.40;95.70
22645;DHT22;11489;50.834;6.752;2023-08-07T04:44:41;12.40;95.70
22645;DHT22;11489;50.834;6.752;2023-08-07T04:47:06;12.50;95.70
22645;DHT22;11489;50.834;6.752;2023-08-07T04:49:32;12.50;95.70
22645;DHT22;11489;50.834;6.752;2023-08-07T04:51:58;12.50;95.70
22645;DHT22;11489;50.834;6.752;2023-08-07T04:54:24;12.60;96.00
22645;DHT22;11489;50.834;6.752;2023-08-07T04:56:49;12.60;95.70
22645;DHT22;11489;50.834;6.752;2023-08-07T04:59:15;12.60;95.70
22645;DHT22;11489;50.834;6.752;2023-08-07T05:01:41;12.60;95.70
22645;DHT22;11489;50.834;6.752;2023-08-07T05:04:07;12.70;95.70
22645;DHT22;11489;50.834;6.752;2023-08-07T05:06:32;12.70;95.60
22645;DHT22;11489;50.834;6.752;2023-08-07T05:08:58;12.70;95.50
22645;DHT22;11489;50.834;6.752;2023-08-07T05:11:24;12.80;95.60
22645;DHT22;11489;50.834;6.752;2023-08-07T05:13:49;12.80;95.60
22645;DHT22;11489;50.834;6.752;2023-08-07T05:16:15;12.80;95.60
22645;DHT22;11489;50.834;6.752;2023-08-07T05:18:42;12.80;95.50
22645;DHT22;11489;50.834;6.752;2023-08-07T05:21:08;12.90;95.50
22645;DHT22;11489;50.834;6.752;2023-08-07T05:23:34;12.90;95.40
22645;DHT22;11489;50.834;6.752;2023-08-07T05:26:00;12.90;95.40
22645;DHT22;11489;50.834;6.752;2023-08-07T05:28:25;12.90;95.30
22645;DHT22;11489;50.834;6.752;2023-08-07T05:30:51;13.00;95.40
22645;DHT22;11489;50.834;6.752;2023-08-07T05:33:16;13.00;95.40
22645;DHT22;11489;50.834;6.752;2023-08-07T05:35:42;13.00;95.40
22645;DHT22;11489;50.834;6.752;2023-08-07T05:38:08;13.00;95.40
22645;DHT22;11489;50.834;6.752;2023-08-07T05:40:33;13.10;95.50
22645;DHT22;11489;50.834;6.752;2023-08-07T05:43:02;13.10;95.50
22645;DHT22;11489;50.834;6.752;2023-08-07T05:45:27;13.10;95.50
22645;DHT22;11489;50.834;6.752;2023-08-07T05:47:53;13.10;95.50
22645;DHT22;11489;50.834;6.752;2023-08-07T05:50:19;13.20;95.50
22645;DHT22;11489;50.834;6.752;2023-08-07T05:52:44;13.20;95.40
22645;DHT22;11489;50.834;6.752;2023-08-07T05:55:11;13.30;95.40
22645;DHT22;11489;50.834;6.752;2023-08-07T05:57:36;13.30;95.40
22645;DHT22;11489;50.834;6.752;2023-08-07T06:00:03;13.30;95.40
22645;DHT22;11489;50.834;6.752;2023-08-07T06:02:29;13.40;95.40
22645;DHT22;11489;50.834;6.752;2023-08-07T06:04:54;13.40;95.40
22645;DHT22;11489;50.834;6.752;2023-08-07T06:07:20;13.40;95.30
22645;DHT22;11489;50.834;6.752;2023-08-07T06:09:46;13.50;95.20
22645;DHT22;11489;50.834;6.752;2023-08-07T06:12:11;13.40;95.20
22645;DHT22;11489;50.834;6.752;2023-08-07T06:14:37;13.50;95.00
22645;DHT22;11489;50.834;6.752;2023-08-07T06:17:04;13.40;94.80
22645;DHT22;11489;50.834;6.752;2023-08-07T06:19:29;13.40;94.60
22645;DHT22;11489;50.834;6.752;2023-08-07T06:21:55;13.40;94.50
22645;DHT22;11489;50.834;6.752;2023-08-07T06:24:21;13.30;94.50
22645;DHT22;11489;50.834;6.752;2023-08-07T06:26:47;13.30;94.60
22645;DHT22;11489;50.834;6.752;2023-08-07T06:29:13;13.30;94.50
22645;DHT22;11489;50.834;6.752;2023-08-07T06:31:38;13.20;94.50
22645;DHT22;11489;50.834;6.752;2023-08-07T06:34:04;13.20;94.50
22645;DHT22;11489;50.834;6.752;2023-08-07T06:36:30;13.20;94.50
22645;DHT22;11489;50.834;6.752;2023-08-07T06:38:55;13.10;94.40
22645;DHT22;11489;50.834;6.752;2023-08-07T06:41:21;13.10;94.50
22645;DHT22;11489;50.834;6.752;2023-08-07T06:43:46;13.00;94.50
22645;DHT22;11489;50.834;6.752;2023-08-07T06:46:12;12.90;94.50
22645;DHT22;11489;50.834;6.752;2023-08-07T06:48:38;12.90;94.60
22645;DHT22;11489;50.834;6.752;2023-08-07T06:51:03;12.80;94.80
22645;DHT22;11489;50.834;6.752;2023-08-07T06:53:29;12.80;94.80
22645;DHT22;11489;50.834;6.752;2023-08-07T06:55:55;12.80;94.90
22645;DHT22;11489;50.834;6.752;2023-08-07T06:58:20;12.80;95.00
22645;DHT22;11489;50.834;6.752;2023-08-07T07:00:46;12.70;95.00
22645;DHT22;11489;50.834;6.752;2023-08-07T07:03:12;12.70;95.00
22645;DHT22;11489;50.834;6.752;2023-08-07T07:05:38;12.70;95.00
22645;DHT22;11489;50.834;6.752;2023-08-07T07:08:04;12.70;95.00
22645;DHT22;11489;50.834;6.752;2023-08-07T07:10:29;12.60;94.90
22645;DHT22;11489;50.834;6.752;2023-08-07T07:12:55;12.60;95.10
22645;DHT22;11489;50.834;6.752;2023-08-07T07:15:21;12.60;95.20
22645;DHT22;11489;50.834;6.752;2023-08-07T07:17:46;12.60;95.30
22645;DHT22;11489;50.834;6.752;2023-08-07T07:20:12;12.60;95.40
22645;DHT22;11489;50.834;6.752;2023-08-07T07:22:38;12.60;95.50
22645;DHT22;11489;50.834;6.752;2023-08-07T07:25:04;12.60;95.60
22645;DHT22;11489;50.834;6.752;2023-08-07T07:27:29;12.70;95.80
22645;DHT22;11489;50.834;6.752;2023-08-07T07:29:55;12.80;96.00
22645;DHT22;11489;50.834;6.752;2023-08-07T07:32:21;12.80;96.00
22645;DHT22;11489;50.834;6.752;2023-08-07T07:34:46;12.90;96.00
22645;DHT22;11489;50.834;6.752;2023-08-07T07:37:13;12.90;95.90
22645;DHT22;11489;50.834;6.752;2023-08-07T07:39:40;12.90;95.80
22645;DHT22;11489;50.834;6.752;2023-08-07T07:42:07;13.00;95.80
22645;DHT22;11489;50.834;6.752;2023-08-07T07:44:33;13.10;95.80
22645;DHT22;11489;50.834;6.752;2023-08-07T07:47:00;13.10;95.80
22645;DHT22;11489;50.834;6.752;2023-08-07T07:49:26;13.20;95.70
22645;DHT22;11489;50.834;6.752;2023-08-07T07:51:52;13.20;95.70
22645;DHT22;11489;50.834;6.752;2023-08-07T07:54:17;13.30;95.80
22645;DHT22;11489;50.834;6.752;2023-08-07T07:56:43;13.40;95.80
22645;DHT22;11489;50.834;6.752;2023-08-07T07:59:09;13.40;95.80
22645;DHT22;11489;50.834;6.752;2023-08-07T08:01:35;13.50;95.80
22645;DHT22;11489;50.834;6.752;2023-08-07T08:04:01;13.60;95.80
22645;DHT22;11489;50.834;6.752;2023-08-07T08:06:27;13.60;95.60
22645;DHT22;11489;50.834;6.752;2023-08-07T08:08:55;13.70;95.50
22645;DHT22;11489;50.834;6.752;2023-08-07T08:11:21;13.70;95.60
22645;DHT22;11489;50.834;6.752;2023-08-07T08:13:47;13.80;95.80
22645;DHT22;11489;50.834;6.752;2023-08-07T08:16:12;13.90;96.10
22645;DHT22;11489;50.834;6.752;2023-08-07T08:18:38;14.00;96.20
22645;DHT22;11489;50.834;6.752;2023-08-07T08:21:04;14.10;96.00
22645;DHT22;11489;50.834;6.752;2023-08-07T08:23:29;14.20;96.10
22645;DHT22;11489;50.834;6.752;2023-08-07T08:25:55;14.30;95.80
22645;DHT22;11489;50.834;6.752;2023-08-07T08:28:20;14.50;95.80
22645;DHT22;11489;50.834;6.752;2023-08-07T08:30:46;14.60;95.50
22645;DHT22;11489;50.834;6.752;2023-08-07T08:33:13;14.60;95.30
22645;DHT22;11489;50.834;6.752;2023-08-07T08:35:43;14.70;95.20
22645;DHT22;11489;50.834;6.752;2023-08-07T08:38:09;14.80;95.00
22645;DHT22;11489;50.834;6.752;2023-08-07T08:40:36;14.80;95.00
22645;DHT22;11489;50.834;6.752;2023-08-07T08:43:04;14.80;95.10
22645;DHT22;11489;50.834;6.752;2023-08-07T08:45:31;14.90;94.80
22645;DHT22;11489;50.834;6.752;2023-08-07T08:48:03;15.00;94.80
22645;DHT22;11489;50.834;6.752;2023-08-07T08:50:30;15.00;95.00
22645;DHT22;11489;50.834;6.752;2023-08-07T08:52:59;15.00;94.70
22645;DHT22;11489;50.834;6.752;2023-08-07T08:55:26;15.10;94.50
22645;DHT22;11489;50.834;6.752;2023-08-07T08:57:52;15.10;94.60
22645;DHT22;11489;50.834;6.752;2023-08-07T09:00:23;15.10;94.70
22645;DHT22;11489;50.834;6.752;2023-08-07T09:02:53;15.20;95.00
22645;DHT22;11489;50.834;6.752;2023-08-07T09:05:20;15.30;95.30
22645;DHT22;11489;50.834;6.752;2023-08-07T09:07:47;15.30;95.50
22645;DHT22;11489;50.834;6.752;2023-08-07T09:10:17;15.40;95.90
22645;DHT22;11489;50.834;6.752;2023-08-07T09:12:49;15.60;96.00
22645;DHT22;11489;50.834;6.752;2023-08-07T09:15:19;15.80;95.70
22645;DHT22;11489;50.834;6.752;2023-08-07T09:17:46;15.90;95.90
22645;DHT22;11489;50.834;6.752;2023-08-07T09:20:12;16.10;95.90
22645;DHT22;11489;50.834;6.752;2023-08-07T09:22:43;16.20;95.70
22645;DHT22;11489;50.834;6.752;2023-08-07T09:25:09;16.30;95.00
22645;DHT22;11489;50.834;6.752;2023-08-07T09:27:38;16.40;94.90
22645;DHT22;11489;50.834;6.752;2023-08-07T09:30:06;16.40;94.60
22645;DHT22;11489;50.834;6.752;2023-08-07T09:32:34;16.40;94.10
22645;DHT22;11489;50.834;6.752;2023-08-07T09:35:02;16.40;93.70
22645;DHT22;11489;50.834;6.752;2023-08-07T09:37:28;16.40;93.70
22645;DHT22;11489;50.834;6.752;2023-08-07T09:39:54;16.30;93.80
22645;DHT22;11489;50.834;6.752;2023-08-07T09:42:20;16.30;93.40
22645;DHT22;11489;50.834;6.752;2023-08-07T09:44:46;16.30;93.60
22645;DHT22;11489;50.834;6.752;2023-08-07T09:47:13;16.20;93.70
22645;DHT22;11489;50.834;6.752;2023-08-07T09:49:39;16.20;93.70
22645;DHT22;11489;50.834;6.752;2023-08-07T09:52:07;16.20;93.50
22645;DHT22;11489;50.834;6.752;2023-08-07T09:54:36;16.10;93.50
22645;DHT22;11489;50.834;6.752;2023-08-07T09:57:02;16.10;93.40
22645;DHT22;11489;50.834;6.752;2023-08-07T09:59:28;16.00;92.90
22645;DHT22;11489;50.834;6.752;2023-08-07T10:01:57;15.90;93.10
22645;DHT22;11489;50.834;6.752;2023-08-07T10:04:25;15.90;93.20
22645;DHT22;11489;50.834;6.752;2023-08-07T10:06:51;15.90;94.00
22645;DHT22;11489;50.834;6.752;2023-08-07T10:09:18;15.90;94.50
22645;DHT22;11489;50.834;6.752;2023-08-07T10:11:47;16.00;95.00
22645;DHT22;11489;50.834;6.752;2023-08-07T10:14:14;16.20;94.60
22645;DHT22;11489;50.834;6.752;2023-08-07T10:16:41;16.30;95.10
22645;DHT22;11489;50.834;6.752;2023-08-07T10:19:10;16.50;95.10
22645;DHT22;11489;50.834;6.752;2023-08-07T10:21:39;16.70;94.60
22645;DHT22;11489;50.834;6.752;2023-08-07T10:24:05;16.80;94.50
22645;DHT22;11489;50.834;6.752;2023-08-07T10:26:37;17.10;94.60
22645;DHT22;11489;50.834;6.752;2023-08-07T10:29:09;17.30;93.80
22645;DHT22;11489;50.834;6.752;2023-08-07T10:31:36;17.50;94.00
22645;DHT22;11489;50.834;6.752;2023-08-07T10:34:03;17.60;94.40
22645;DHT22;11489;50.834;6.752;2023-08-07T10:36:33;17.90;94.60
22645;DHT22;11489;50.834;6.752;2023-08-07T10:39:09;18.10;94.30
22645;DHT22;11489;50.834;6.752;2023-08-07T10:41:39;18.30;93.70
22645;DHT22;11489;50.834;6.752;2023-08-07T10:44:17;18.60;93.60
22645;DHT22;11489;50.834;6.752;2023-08-07T10:46:48;18.80;92.60
22645;DHT22;11489;50.834;6.752;2023-08-07T10:49:31;19.00;93.50
22645;DHT22;11489;50.834;6.752;2023-08-07T10:51:58;19.10;91.60
22645;DHT22;11489;50.834;6.752;2023-08-07T10:54:24;19.20;92.80
22645;DHT22;11489;50.834;6.752;2023-08-07T10:56:54;19.30;92.90
22645;DHT22;11489;50.834;6.752;2023-08-07T10:59:20;19.40;92.70
22645;DHT22;11489;50.834;6.752;2023-08-07T11:01:51;19.60;93.10
22645;DHT22;11489;50.834;6.752;2023-08-07T11:04:18;19.70;92.40
22645;DHT22;11489;50.834;6.752;2023-08-07T11:06:47;19.90;92.80
22645;DHT22;11489;50.834;6.752;2023-08-07T11:09:13;20.00;91.80
22645;DHT22;11489;50.834;6.752;2023-08-07T11:11:43;20.10;91.10
22645;DHT22;11489;50.834;6.752;2023-08-07T11:16:40;20.10;90.70
22645;DHT22;11489;50.834;6.752;2023-08-07T11:19:06;20.20;91.40
22645;DHT22;11489;50.834;6.752;2023-08-07T11:21:32;20.30;91.20
22645;DHT22;11489;50.834;6.752;2023-08-07T11:23:58;20.40;91.30
22645;DHT22;11489;50.834;6.752;2023-08-07T11:26:24;20.40;90.40
22645;DHT22;11489;50.834;6.752;2023-08-07T11:28:51;20.40;90.50
22645;DHT22;11489;50.834;6.752;2023-08-07T11:31:18;20.50;90.00
22645;DHT22;11489;50.834;6.752;2023-08-07T11:33:44;20.50;89.80
22645;DHT22;11489;50.834;6.752;2023-08-07T11:36:14;20.50;89.20
22645;DHT22;11489;50.834;6.752;2023-08-07T11:38:41;20.50;88.40
22645;DHT22;11489;50.834;6.752;2023-08-07T11:41:11;20.60;88.90
22645;DHT22;11489;50.834;6.752;2023-08-07T11:43:39;20.70;89.00
22645;DHT22;11489;50.834;6.752;2023-08-07T11:46:07;20.70;88.10
22645;DHT22;11489;50.834;6.752;2023-08-07T11:48:34;20.80;86.60
22645;DHT22;11489;50.834;6.752;2023-08-07T11:51:01;20.80;86.70
22645;DHT22;11489;50.834;6.752;2023-08-07T11:53:30;20.80;87.00
22645;DHT22;11489;50.834;6.752;2023-08-07T11:55:58;20.80;86.30
22645;DHT22;11489;50.834;6.752;2023-08-07T11:58:25;20.80;85.90
22645;DHT22;11489;50.834;6.752;2023-08-07T12:00:52;20.80;86.30
22645;DHT22;11489;50.834;6.752;2023-08-07T12:06:16;20.90;77.30
22645;DHT22;11489;50.834;6.752;2023-08-07T12:08:42;20.90;84.20
22645;DHT22;11489;50.834;6.752;2023-08-07T12:11:12;20.90;83.50
22645;DHT22;11489;50.834;6.752;2023-08-07T12:13:40;20.90;80.80
22645;DHT22;11489;50.834;6.752;2023-08-07T12:16:06;21.00;81.30
22645;DHT22;11489;50.834;6.752;2023-08-07T12:18:34;21.00;79.60
22645;DHT22;11489;50.834;6.752;2023-08-07T12:21:07;20.90;79.80
22645;DHT22;11489;50.834;6.752;2023-08-07T12:23:34;20.90;79.60
22645;DHT22;11489;50.834;6.752;2023-08-07T12:26:00;20.80;80.40
22645;DHT22;11489;50.834;6.752;2023-08-07T12:28:25;20.70;80.40
22645;DHT22;11489;50.834;6.752;2023-08-07T12:30:51;20.70;82.00
22645;DHT22;11489;50.834;6.752;2023-08-07T12:33:18;20.70;83.50
22645;DHT22;11489;50.834;6.752;2023-08-07T12:35:43;20.80;82.90
22645;DHT22;11489;50.834;6.752;2023-08-07T12:38:09;20.90;82.90
22645;DHT22;11489;50.834;6.752;2023-08-07T12:40:36;20.90;82.20
22645;DHT22;11489;50.834;6.752;2023-08-07T12:43:02;20.90;80.60
22645;DHT22;11489;50.834;6.752;2023-08-07T12:45:28;20.80;80.40
22645;DHT22;11489;50.834;6.752;2023-08-07T12:47:54;20.80;81.20
22645;DHT22;11489;50.834;6.752;2023-08-07T12:50:20;20.70;82.00
22645;DHT22;11489;50.834;6.752;2023-08-07T12:52:46;20.60;82.80
22645;DHT22;11489;50.834;6.752;2023-08-07T12:55:11;20.60;82.50
22645;DHT22;11489;50.834;6.752;2023-08-07T12:57:40;20.60;82.50
22645;DHT22;11489;50.834;6.752;2023-08-07T13:00:06;20.70;82.70
22645;DHT22;11489;50.834;6.752;2023-08-07T13:02:34;20.70;83.70
22645;DHT22;11489;50.834;6.752;2023-08-07T13:04:59;20.90;84.70
22645;DHT22;11489;50.834;6.752;2023-08-07T13:07:25;21.00;84.30
22645;DHT22;11489;50.834;6.752;2023-08-07T13:09:51;21.20;83.90
22645;DHT22;11489;50.834;6.752;2023-08-07T13:12:16;21.30;83.00
22645;DHT22;11489;50.834;6.752;2023-08-07T13:14:42;21.30;81.10
22645;DHT22;11489;50.834;6.752;2023-08-07T13:17:07;21.30;80.50
22645;DHT22;11489;50.834;6.752;2023-08-07T13:19:33;21.30;79.60
22645;DHT22;11489;50.834;6.752;2023-08-07T13:21:59;21.20;79.30
22645;DHT22;11489;50.834;6.752;2023-08-07T13:24:24;21.20;80.30
22645;DHT22;11489;50.834;6.752;2023-08-07T13:26:50;21.10;81.70
22645;DHT22;11489;50.834;6.752;2023-08-07T13:29:15;21.20;82.10
22645;DHT22;11489;50.834;6.752;2023-08-07T13:31:41;21.20;81.70
22645;DHT22;11489;50.834;6.752;2023-08-07T13:34:08;21.30;81.10
22645;DHT22;11489;50.834;6.752;2023-08-07T13:36:36;21.40;81.10
22645;DHT22;11489;50.834;6.752;2023-08-07T13:39:03;21.40;80.60
22645;DHT22;11489;50.834;6.752;2023-08-07T13:41:29;21.50;80.20
22645;DHT22;11489;50.834;6.752;2023-08-07T13:43:55;21.40;80.60
22645;DHT22;11489;50.834;6.752;2023-08-07T13:46:20;21.40;80.40
22645;DHT22;11489;50.834;6.752;2023-08-07T13:48:47;21.40;80.00
22645;DHT22;11489;50.834;6.752;2023-08-07T13:51:16;21.30;78.00
22645;DHT22;11489;50.834;6.752;2023-08-07T13:53:43;21.10;77.50
22645;DHT22;11489;50.834;6.752;2023-08-07T13:56:10;21.00;78.40
22645;DHT22;11489;50.834;6.752;2023-08-07T13:58:44;20.80;79.70
22645;DHT22;11489;50.834;6.752;2023-08-07T14:01:09;20.70;80.90
22645;DHT22;11489;50.834;6.752;2023-08-07T14:03:35;20.80;81.70
22645;DHT22;11489;50.834;6.752;2023-08-07T14:06:01;20.80;81.90
22645;DHT22;11489;50.834;6.752;2023-08-07T14:08:27;20.90;81.80
22645;DHT22;11489;50.834;6.752;2023-08-07T14:10:52;20.90;80.80
22645;DHT22;11489;50.834;6.752;2023-08-07T14:13:18;21.00;80.70
22645;DHT22;11489;50.834;6.752;2023-08-07T14:15:44;21.10;79.80
22645;DHT22;11489;50.834;6.752;2023-08-07T14:18:09;21.10;80.00
22645;DHT22;11489;50.834;6.752;2023-08-07T14:20:37;21.20;78.90
22645;DHT22;11489;50.834;6.752;2023-08-07T14:23:03;21.30;80.80
22645;DHT22;11489;50.834;6.752;2023-08-07T14:25:28;21.50;81.10
22645;DHT22;11489;50.834;6.752;2023-08-07T14:27:54;21.70;81.60
22645;DHT22;11489;50.834;6.752;2023-08-07T14:30:20;21.90;79.60
22645;DHT22;11489;50.834;6.752;2023-08-07T14:32:46;21.90;77.30
22645;DHT22;11489;50.834;6.752;2023-08-07T14:35:13;21.90;77.80
22645;DHT22;11489;50.834;6.752;2023-08-07T14:37:39;21.90;77.10
22645;DHT22;11489;50.834;6.752;2023-08-07T14:40:06;21.80;77.40
22645;DHT22;11489;50.834;6.752;2023-08-07T14:42:32;21.70;77.10
22645;DHT22;11489;50.834;6.752;2023-08-07T14:44:58;21.60;77.20
22645;DHT22;11489;50.834;6.752;2023-08-07T14:47:25;21.50;77.10
22645;DHT22;11489;50.834;6.752;2023-08-07T14:49:50;21.30;76.40
22645;DHT22;11489;50.834;6.752;2023-08-07T14:52:16;21.20;76.50
22645;DHT22;11489;50.834;6.752;2023-08-07T14:54:42;21.10;77.50
22645;DHT22;11489;50.834;6.752;2023-08-07T14:57:08;20.90;77.70
22645;DHT22;11489;50.834;6.752;2023-08-07T14:59:34;20.90;79.50
22645;DHT22;11489;50.834;6.752;2023-08-07T15:02:00;20.90;81.20
22645;DHT22;11489;50.834;6.752;2023-08-07T15:04:25;21.10;81.70
22645;DHT22;11489;50.834;6.752;2023-08-07T15:06:51;21.20;79.90
22645;DHT22;11489;50.834;6.752;2023-08-07T15:09:17;21.30;78.80
22645;DHT22;11489;50.834;6.752;2023-08-07T15:11:45;21.30;77.10
22645;DHT22;11489;50.834;6.752;2023-08-07T15:14:12;21.30;76.90
22645;DHT22;11489;50.834;6.752;2023-08-07T15:16:37;21.20;77.00
22645;DHT22;11489;50.834;6.752;2023-08-07T15:19:03;21.00;77.10
22645;DHT22;11489;50.834;6.752;2023-08-07T15:21:30;21.00;76.90
22645;DHT22;11489;50.834;6.752;2023-08-07T15:23:55;20.80;76.30
22645;DHT22;11489;50.834;6.752;2023-08-07T15:26:21;20.70;77.40
22645;DHT22;11489;50.834;6.752;2023-08-07T15:28:47;20.70;77.60
22645;DHT22;11489;50.834;6.752;2023-08-07T15:31:12;20.60;77.70
22645;DHT22;11489;50.834;6.752;2023-08-07T15:33:38;20.60;78.00
22645;DHT22;11489;50.834;6.752;2023-08-07T15:36:04;20.60;78.60
22645;DHT22;11489;50.834;6.752;2023-08-07T15:38:30;20.60;78.50